createdAt,value
2022-09-23T00:01:23.983Z,100.90
2022-09-23T00:03:52.216Z,92.55
2022-09-23T00:06:21.435Z,97.88
2022-09-23T00:08:50.362Z,90.97
2022-09-23T00:11:20.612Z,101.60
2022-09-23T00:13:52.031Z,97.55
2022-09-23T00:16:22.010Z,100.00
2022-09-23T00:18:50.864Z,88.63
2022-09-23T00:21:19.827Z,99.10
2022-09-23T00:23:47.751Z,103.93
2022-09-23T00:26:19.068Z,103.22
2022-09-23T00:28:48.881Z,98.22
2022-09-23T00:31:18.914Z,66.70
2022-09-23T00:33:46.996Z,85.95
2022-09-23T00:36:16.279Z,99.60
2022-09-23T00:38:44.428Z,103.55
2022-09-23T00:41:14.537Z,104.80
2022-09-23T00:43:44.388Z,102.15
2022-09-23T00:46:20.389Z,93.10
2022-09-23T00:48:49.716Z,100.97
2022-09-23T00:51:21.570Z,102.90
2022-09-23T00:53:51.750Z,105.25
2022-09-23T00:56:23.730Z,105.47
2022-09-23T00:58:53.124Z,106.68
2022-09-23T01:01:23.223Z,104.22
2022-09-23T01:03:52.973Z,106.90
2022-09-23T01:06:21.809Z,113.80
2022-09-23T01:08:50.787Z,117.55
2022-09-23T01:11:30.776Z,109.00
2022-09-23T01:14:07.340Z,111.75
2022-09-23T01:16:41.415Z,110.88
2022-09-23T01:19:25.312Z,120.32
2022-09-23T01:22:00.089Z,118.47
2022-09-23T01:24:48.439Z,122.05
2022-09-23T01:27:42.024Z,121.57
2022-09-23T01:30:23.839Z,120.85
2022-09-23T01:33:04.671Z,99.80
2022-09-23T01:35:43.794Z,98.97
2022-09-23T01:38:18.037Z,103.03
2022-09-23T01:40:50.478Z,93.47
2022-09-23T01:43:24.414Z,104.00
2022-09-23T01:45:56.653Z,100.43
2022-09-23T01:48:30.762Z,100.70
2022-09-23T01:51:03.720Z,102.38
2022-09-23T01:53:38.883Z,97.65
2022-09-23T01:56:12.319Z,107.63
2022-09-23T01:58:44.277Z,113.50
2022-09-23T02:01:17.213Z,100.35
2022-09-23T02:03:50.161Z,88.78
2022-09-23T02:06:23.397Z,94.95
2022-09-23T02:08:56.869Z,109.70
2022-09-23T02:11:25.100Z,129.55
2022-09-23T02:13:57.627Z,124.57
2022-09-23T02:16:28.705Z,133.20
2022-09-23T02:19:02.449Z,140.25
2022-09-23T02:21:35.638Z,152.00
2022-09-23T02:24:09.956Z,145.73
2022-09-23T02:26:42.112Z,145.13
2022-09-23T02:29:17.433Z,149.63
2022-09-23T02:31:51.109Z,151.13
2022-09-23T02:34:25.407Z,142.68
2022-09-23T02:37:00.522Z,143.65
2022-09-23T02:39:34.658Z,139.32
2022-09-23T02:42:07.116Z,134.07
2022-09-23T02:44:35.162Z,145.07
2022-09-23T02:47:03.528Z,148.60
2022-09-23T02:49:33.696Z,156.05
2022-09-23T02:52:05.827Z,159.95
2022-09-23T02:54:35.462Z,151.15
2022-09-23T02:57:05.745Z,163.50
2022-09-23T02:59:33.965Z,158.25
2022-09-23T03:02:15.078Z,156.95
2022-09-23T03:04:50.453Z,156.95
2022-09-23T03:07:20.315Z,160.07
2022-09-23T03:09:54.806Z,160.73
2022-09-23T03:12:36.051Z,164.15
2022-09-23T03:15:13.698Z,160.40
2022-09-23T03:17:48.214Z,161.00
2022-09-23T03:20:23.825Z,163.88
2022-09-23T03:22:55.298Z,165.23
2022-09-23T03:25:25.142Z,163.50
2022-09-23T03:27:57.111Z,164.43
2022-09-23T03:30:24.999Z,162.60
2022-09-23T03:32:53.400Z,155.05
2022-09-23T03:35:23.292Z,166.15
2022-09-23T03:37:54.940Z,162.13
2022-09-23T03:40:26.647Z,157.43
2022-09-23T03:42:56.225Z,155.98
2022-09-23T03:45:29.398Z,163.55
2022-09-23T03:47:57.242Z,157.75
2022-09-23T03:50:26.702Z,154.40
2022-09-23T03:52:56.843Z,150.57
2022-09-23T03:55:28.195Z,152.95
2022-09-23T03:57:58.819Z,155.85
2022-09-23T04:00:30.757Z,155.38
2022-09-23T04:02:59.009Z,170.45
2022-09-23T04:05:28.635Z,168.75
2022-09-23T04:07:56.809Z,171.45
2022-09-23T04:10:24.613Z,168.35
2022-09-23T04:12:52.418Z,169.35
2022-09-23T04:15:20.197Z,164.60
2022-09-23T04:17:48.240Z,170.65
2022-09-23T04:20:16.210Z,165.90
2022-09-23T04:22:45.432Z,166.65
2022-09-23T04:25:13.486Z,168.13
2022-09-23T04:27:41.371Z,163.93
2022-09-23T04:30:10.386Z,158.23
2022-09-23T04:32:38.509Z,154.25
2022-09-23T04:35:09.371Z,152.60
2022-09-23T04:37:37.612Z,152.13
2022-09-23T04:40:08.545Z,150.02
2022-09-23T04:42:36.427Z,154.00
2022-09-23T04:45:05.657Z,153.75
2022-09-23T04:47:33.650Z,149.23
2022-09-23T04:50:01.476Z,152.70
2022-09-23T04:52:31.321Z,134.57
2022-09-23T04:54:59.135Z,133.85
2022-09-23T04:57:29.920Z,134.60
2022-09-23T04:59:58.064Z,143.02
2022-09-23T05:02:26.189Z,149.40
2022-09-23T05:04:54.111Z,152.35
2022-09-23T05:07:22.109Z,155.50
2022-09-23T05:09:50.043Z,154.07
2022-09-23T05:12:18.922Z,162.50
2022-09-23T05:14:48.551Z,154.52
2022-09-23T05:17:16.410Z,150.77
2022-09-23T05:19:44.241Z,152.85
2022-09-23T05:22:12.005Z,140.30
2022-09-23T05:24:39.888Z,144.25
2022-09-23T05:27:08.484Z,144.80
2022-09-23T05:29:36.533Z,146.90
2022-09-23T05:32:06.516Z,144.85
2022-09-23T05:34:34.361Z,128.98
2022-09-23T05:37:02.773Z,117.25
2022-09-23T05:39:30.729Z,120.55
2022-09-23T05:42:00.321Z,110.85
2022-09-23T05:44:28.375Z,91.18
2022-09-23T05:46:56.453Z,99.10
2022-09-23T05:49:42.511Z,94.05
2022-09-23T05:52:14.197Z,85.00
2022-09-23T05:54:42.084Z,79.68
2022-09-23T05:57:09.882Z,75.80
2022-09-23T05:59:38.193Z,84.57
2022-09-23T06:02:06.261Z,77.28
2022-09-23T06:04:35.901Z,94.72
2022-09-23T06:07:03.877Z,97.35
2022-09-23T06:09:36.379Z,92.97
2022-09-23T06:12:05.217Z,99.80
2022-09-23T06:14:33.376Z,104.88
2022-09-23T06:17:01.301Z,106.00
2022-09-23T06:19:29.172Z,114.78
2022-09-23T06:21:58.468Z,114.45
2022-09-23T06:24:31.068Z,126.68
2022-09-23T06:26:59.324Z,132.80
2022-09-23T06:29:27.103Z,138.52
2022-09-23T06:31:55.356Z,131.95
2022-09-23T06:34:23.581Z,133.02
2022-09-23T06:36:51.776Z,133.82
2022-09-23T06:39:21.062Z,140.57
2022-09-23T06:41:49.179Z,140.63
2022-09-23T06:44:17.069Z,141.88
2022-09-23T06:46:45.146Z,149.30
2022-09-23T06:49:13.613Z,145.20
2022-09-23T06:51:41.565Z,153.30
2022-09-23T06:54:09.809Z,150.13
2022-09-23T06:56:39.818Z,158.07
2022-09-23T06:59:08.432Z,156.23
2022-09-23T07:01:36.342Z,153.25
2022-09-23T07:04:04.451Z,161.35
2022-09-23T07:06:32.335Z,150.60
2022-09-23T07:09:01.101Z,151.68
2022-09-23T07:11:29.056Z,153.98
2022-09-23T07:13:58.509Z,159.15
2022-09-23T07:16:26.743Z,155.82
2022-09-23T07:18:55.020Z,157.77
2022-09-23T07:21:22.850Z,159.70
2022-09-23T07:23:51.995Z,165.40
2022-09-23T07:26:21.179Z,160.43
2022-09-23T07:28:49.343Z,148.50
2022-09-23T07:31:33.195Z,148.75
2022-09-23T07:34:04.745Z,161.23
2022-09-23T07:36:33.258Z,164.48
2022-09-23T07:39:03.250Z,164.35
2022-09-23T07:41:32.876Z,164.43
2022-09-23T07:44:01.255Z,154.48
2022-09-23T07:46:32.273Z,151.35
2022-09-23T07:49:00.398Z,157.25
2022-09-23T07:51:34.710Z,143.75
2022-09-23T07:54:05.372Z,149.00
2022-09-23T07:56:33.381Z,158.50
2022-09-23T07:59:02.903Z,160.13
2022-09-23T08:01:33.375Z,171.45
2022-09-23T08:04:03.994Z,179.15
2022-09-23T08:06:31.866Z,183.90
2022-09-23T08:09:00.541Z,185.15
2022-09-23T08:11:29.302Z,203.27
2022-09-23T08:13:57.318Z,181.93
2022-09-23T08:16:25.329Z,192.60
2022-09-23T08:18:54.707Z,195.35
2022-09-23T08:21:23.429Z,203.75
2022-09-23T08:23:51.820Z,197.68
2022-09-23T08:26:22.408Z,197.95
2022-09-23T08:28:53.949Z,185.13
2022-09-23T08:31:22.103Z,191.90
2022-09-23T08:33:54.507Z,201.48
2022-09-23T08:36:22.531Z,192.10
2022-09-23T08:38:50.718Z,188.20
2022-09-23T08:41:24.525Z,195.82
2022-09-23T08:43:56.071Z,200.40
2022-09-23T08:46:27.552Z,203.88
2022-09-23T08:48:57.279Z,208.95
2022-09-23T08:51:29.673Z,203.93
2022-09-23T08:53:58.221Z,202.07
2022-09-23T08:56:26.206Z,207.68
2022-09-23T08:59:03.090Z,210.50
2022-09-23T09:01:37.918Z,209.05
2022-09-23T09:04:19.158Z,192.32
2022-09-23T09:06:53.876Z,185.70
2022-09-23T09:09:25.225Z,192.55
2022-09-23T09:11:58.163Z,216.73
2022-09-23T09:14:28.291Z,213.95
2022-09-23T09:17:00.609Z,208.15
2022-09-23T09:19:57.090Z,209.50
2022-09-23T09:22:48.189Z,206.00
2022-09-23T09:25:34.781Z,203.75
2022-09-23T09:28:03.053Z,208.95
2022-09-23T09:30:32.436Z,205.18
2022-09-23T09:33:04.164Z,206.52
2022-09-23T09:35:38.110Z,213.63
2022-09-23T09:38:06.838Z,217.52
2022-09-23T09:40:35.636Z,222.15
2022-09-23T09:43:04.686Z,226.57
2022-09-23T09:45:57.564Z,229.63
2022-09-23T09:48:33.175Z,217.25
2022-09-23T09:51:19.422Z,218.63
2022-09-23T09:53:47.641Z,219.82
2022-09-23T09:56:16.759Z,208.32
2022-09-23T09:58:47.868Z,230.07
2022-09-23T10:01:23.341Z,228.95
2022-09-23T10:03:58.502Z,224.57
2022-09-23T10:06:31.906Z,218.50
2022-09-23T10:09:12.528Z,222.73
2022-09-23T10:11:42.278Z,234.02
2022-09-23T10:14:18.324Z,228.25
2022-09-23T10:16:49.078Z,228.88
2022-09-23T10:19:29.761Z,225.98
2022-09-23T10:22:01.627Z,230.68
2022-09-23T10:24:32.258Z,225.10
2022-09-23T10:27:03.378Z,229.98
2022-09-23T10:29:32.785Z,229.00
2022-09-23T10:32:21.496Z,230.20
2022-09-23T10:34:51.877Z,219.98
2022-09-23T10:37:26.865Z,241.98
2022-09-23T10:40:12.154Z,238.18
2022-09-23T10:43:11.327Z,240.25
2022-09-23T10:45:58.519Z,237.40
2022-09-23T10:48:35.895Z,235.90
2022-09-23T10:51:08.828Z,235.80
2022-09-23T10:53:49.485Z,243.35
2022-09-23T10:56:24.567Z,235.77
2022-09-23T10:59:47.701Z,247.05
2022-09-23T11:02:31.275Z,250.95
2022-09-23T11:05:21.441Z,242.68
2022-09-23T11:07:56.990Z,249.45
2022-09-23T11:10:54.451Z,247.65
2022-09-23T11:13:34.104Z,241.95
2022-09-23T11:16:09.982Z,244.40
2022-09-23T11:18:53.565Z,252.43
2022-09-23T11:21:31.014Z,250.60
2022-09-23T11:24:12.231Z,257.25
2022-09-23T11:26:53.671Z,252.65
2022-09-23T11:29:51.841Z,261.38
2022-09-23T11:32:32.030Z,258.08
2022-09-23T11:35:10.933Z,276.60
2022-09-23T11:37:43.978Z,267.33
2022-09-23T11:40:17.738Z,260.17
2022-09-23T11:42:53.775Z,270.15
2022-09-23T11:45:24.581Z,269.52
2022-09-23T11:47:55.053Z,260.13
2022-09-23T11:50:27.902Z,256.77
2022-09-23T11:52:59.978Z,261.33
2022-09-23T11:55:32.410Z,262.80
2022-09-23T11:58:16.863Z,268.05
2022-09-23T12:01:01.058Z,265.20
2022-09-23T12:03:44.050Z,263.77
2022-09-23T12:06:16.357Z,267.73
2022-09-23T12:08:44.468Z,275.92
2022-09-23T12:11:23.677Z,269.88
2022-09-23T12:13:58.093Z,266.00
2022-09-23T12:17:04.434Z,278.15
2022-09-23T12:19:48.730Z,263.35
2022-09-23T12:22:31.873Z,264.13
2022-09-23T12:25:06.774Z,265.60
2022-09-23T12:27:37.816Z,265.35
2022-09-23T12:30:14.812Z,273.50
2022-09-23T12:32:43.159Z,266.08
2022-09-23T12:35:22.658Z,270.58
2022-09-23T12:37:50.881Z,273.20
2022-09-23T12:40:22.675Z,278.15
2022-09-23T12:42:50.824Z,275.50
2022-09-23T12:45:35.207Z,270.92
2022-09-23T12:48:04.528Z,259.30
2022-09-23T12:50:48.617Z,270.00
2022-09-23T12:53:54.175Z,269.55
2022-09-23T12:56:24.597Z,240.98
2022-09-23T12:59:20.676Z,266.00
2022-09-23T13:01:50.059Z,259.35
2022-09-23T13:04:51.621Z,274.08
2022-09-23T13:07:20.694Z,249.38
2022-09-23T13:09:50.836Z,261.42
2022-09-23T13:12:22.313Z,259.58
2022-09-23T13:14:54.107Z,254.52
2022-09-23T13:17:33.281Z,251.60
2022-09-23T13:20:03.750Z,249.95
2022-09-23T13:23:06.028Z,259.13
2022-09-23T13:25:37.290Z,262.90
2022-09-23T13:28:05.364Z,267.38
2022-09-23T13:30:33.745Z,264.35
2022-09-23T13:33:07.761Z,265.77
2022-09-23T13:35:37.525Z,265.02
2022-09-23T13:38:12.566Z,264.65
2022-09-23T13:40:42.554Z,289.48
2022-09-23T13:43:15.773Z,275.45
2022-09-23T13:45:44.299Z,270.45
2022-09-23T13:48:15.840Z,276.63
2022-09-23T13:50:48.574Z,276.52
2022-09-23T13:53:21.886Z,274.83
2022-09-23T13:56:01.514Z,274.77
2022-09-23T13:58:30.768Z,275.25
2022-09-23T14:00:58.869Z,265.77
2022-09-23T14:03:35.347Z,274.60
2022-09-23T14:06:07.148Z,265.95
2022-09-23T14:08:38.241Z,273.35
2022-09-23T14:11:06.849Z,269.00
2022-09-23T14:13:41.785Z,281.33
2022-09-23T14:16:11.693Z,287.27
2022-09-23T14:18:42.813Z,284.42
2022-09-23T14:21:28.933Z,270.35
2022-09-23T14:23:57.505Z,280.15
2022-09-23T14:26:25.787Z,284.33
2022-09-23T14:28:54.131Z,269.02
2022-09-23T14:31:22.098Z,274.08
2022-09-23T14:33:51.983Z,280.52
2022-09-23T14:36:37.514Z,276.85
2022-09-23T14:39:07.345Z,272.45
2022-09-23T14:41:38.613Z,250.13
2022-09-23T14:44:07.625Z,154.70
2022-09-23T14:46:36.758Z,248.52
2022-09-23T14:49:08.307Z,241.65
2022-09-23T14:51:42.363Z,243.60
2022-09-23T14:54:33.479Z,255.80
2022-09-23T14:57:01.784Z,255.85
2022-09-23T14:59:34.269Z,252.13
2022-09-23T15:02:02.090Z,250.57
2022-09-23T15:04:32.781Z,259.17
2022-09-23T15:07:03.950Z,259.75
2022-09-23T15:09:34.638Z,258.20
2022-09-23T15:12:04.108Z,257.60
2022-09-23T15:14:39.204Z,255.82
2022-09-23T15:17:16.115Z,256.02
2022-09-23T15:19:46.564Z,251.52
2022-09-23T15:22:16.656Z,257.98
2022-09-23T15:24:46.202Z,245.95
2022-09-23T15:27:30.869Z,242.07
2022-09-23T15:30:18.758Z,250.45
2022-09-23T15:32:47.445Z,261.50
2022-09-23T15:35:18.859Z,259.15
2022-09-23T15:37:48.174Z,257.17
2022-09-23T15:40:20.971Z,266.98
2022-09-23T15:42:52.549Z,255.13
2022-09-23T15:45:22.040Z,266.98
2022-09-23T15:47:52.292Z,263.08
2022-09-23T15:50:21.631Z,253.88
2022-09-23T15:52:49.499Z,257.42
2022-09-23T15:55:18.667Z,264.27
2022-09-23T15:57:46.504Z,260.52
2022-09-23T16:00:16.035Z,254.48
2022-09-23T16:02:45.545Z,262.23
2022-09-23T16:05:18.745Z,257.75
2022-09-23T16:07:48.461Z,262.83
2022-09-23T16:10:16.973Z,276.60
2022-09-23T16:12:44.953Z,260.58
2022-09-23T16:15:15.391Z,256.20
2022-09-23T16:17:44.384Z,258.95
2022-09-23T16:20:12.895Z,264.45
2022-09-23T16:22:42.758Z,255.38
2022-09-23T16:25:14.242Z,251.30
2022-09-23T16:27:42.321Z,247.20
2022-09-23T16:30:12.021Z,246.25
2022-09-23T16:32:40.237Z,256.98
2022-09-23T16:35:09.378Z,254.38
2022-09-23T16:37:37.221Z,259.15
2022-09-23T16:40:07.515Z,256.23
2022-09-23T16:42:38.328Z,244.05
2022-09-23T16:45:07.101Z,244.25
2022-09-23T16:47:35.275Z,244.85
2022-09-23T16:50:03.206Z,242.73
2022-09-23T16:52:31.092Z,239.68
2022-09-23T16:55:00.290Z,245.18
2022-09-23T16:57:30.002Z,247.73
2022-09-23T17:00:16.677Z,242.65
2022-09-23T17:03:02.143Z,237.13
2022-09-23T17:05:30.003Z,244.80
2022-09-23T17:07:57.835Z,239.80
2022-09-23T17:10:25.729Z,235.23
2022-09-23T17:12:54.530Z,235.85
2022-09-23T17:15:23.985Z,242.15
2022-09-23T17:17:51.805Z,247.80
2022-09-23T17:20:20.141Z,244.43
2022-09-23T17:22:48.418Z,245.52
2022-09-23T17:25:16.742Z,244.18
2022-09-23T17:27:44.552Z,244.13
2022-09-23T17:30:14.581Z,250.82
2022-09-23T17:32:44.240Z,255.30
2022-09-23T17:35:12.496Z,251.63
2022-09-23T17:37:40.381Z,242.93
2022-09-23T17:40:09.155Z,252.18
2022-09-23T17:42:41.271Z,251.85
2022-09-23T17:45:10.401Z,250.93
2022-09-23T17:47:41.711Z,249.45
2022-09-23T17:50:11.489Z,250.98
2022-09-23T17:52:39.466Z,245.07
2022-09-23T17:55:08.766Z,233.23
2022-09-23T17:57:36.598Z,247.65
2022-09-23T18:00:05.190Z,242.98
2022-09-23T18:02:33.032Z,255.02
2022-09-23T18:05:00.893Z,251.70
2022-09-23T18:07:30.116Z,256.83
2022-09-23T18:09:57.996Z,249.68
2022-09-23T18:12:26.155Z,253.05
2022-09-23T18:14:53.977Z,239.88
2022-09-23T18:17:22.081Z,246.25
2022-09-23T18:19:50.546Z,237.95
2022-09-23T18:22:20.867Z,241.52
2022-09-23T18:24:50.110Z,237.85
2022-09-23T18:27:17.873Z,238.35
2022-09-23T18:29:45.853Z,239.95
2022-09-23T18:32:14.531Z,235.75
2022-09-23T18:34:42.726Z,235.20
2022-09-23T18:37:15.638Z,235.77
2022-09-23T18:39:44.620Z,232.15
2022-09-23T18:42:14.397Z,249.65
2022-09-23T18:44:42.462Z,231.68
2022-09-23T18:47:31.390Z,235.50
2022-09-23T18:50:16.757Z,227.05
2022-09-23T18:52:44.592Z,228.18
2022-09-23T18:55:12.694Z,234.93
2022-09-23T18:57:42.091Z,230.63
2022-09-23T19:00:11.337Z,222.82
2022-09-23T19:02:39.128Z,227.93
2022-09-23T19:05:07.941Z,224.35
2022-09-23T19:07:36.038Z,225.93
2022-09-23T19:10:04.097Z,230.35
2022-09-23T19:12:32.345Z,232.82
2022-09-23T19:15:01.592Z,225.23
2022-09-23T19:17:30.183Z,227.40
2022-09-23T19:19:58.578Z,223.07
2022-09-23T19:22:26.650Z,220.88
2022-09-23T19:24:54.540Z,225.20
2022-09-23T19:27:23.488Z,218.73
2022-09-23T19:29:51.319Z,216.93
2022-09-23T19:32:21.256Z,227.50
2022-09-23T19:34:49.681Z,221.50
2022-09-23T19:37:17.745Z,220.40
2022-09-23T19:39:47.575Z,209.02
2022-09-23T19:42:15.438Z,226.45
2022-09-23T19:44:44.649Z,214.50
2022-09-23T19:47:15.628Z,221.15
2022-09-23T19:49:45.022Z,213.45
2022-09-23T19:52:12.965Z,221.40
2022-09-23T19:54:40.903Z,222.32
2022-09-23T19:57:11.660Z,215.55
2022-09-23T19:59:40.307Z,220.55
2022-09-23T20:02:10.327Z,219.40
2022-09-23T20:04:38.194Z,217.25
2022-09-23T20:07:08.967Z,213.80
2022-09-23T20:09:36.802Z,214.88
2022-09-23T20:12:04.965Z,222.73
2022-09-23T20:14:32.751Z,221.10
2022-09-23T20:17:01.846Z,217.02
2022-09-23T20:19:29.718Z,211.82
2022-09-23T20:22:23.387Z,216.65
2022-09-23T20:24:52.904Z,213.77
2022-09-23T20:27:21.006Z,223.88
2022-09-23T20:29:50.176Z,210.07
2022-09-23T20:32:18.209Z,204.70
2022-09-23T20:34:49.097Z,218.98
2022-09-23T20:37:18.367Z,209.50
2022-09-23T20:39:47.485Z,211.15
2022-09-23T20:42:18.624Z,211.82
2022-09-23T20:44:48.343Z,216.38
2022-09-23T20:47:18.853Z,213.82
2022-09-23T20:49:49.022Z,208.38
2022-09-23T20:52:21.501Z,206.57
2022-09-23T20:54:52.207Z,207.88
2022-09-23T20:57:22.335Z,202.60
2022-09-23T20:59:50.520Z,201.95
2022-09-23T21:02:19.324Z,206.43
2022-09-23T21:04:47.938Z,203.18
2022-09-23T21:07:17.535Z,207.98
2022-09-23T21:09:46.069Z,201.95
2022-09-23T21:12:14.956Z,202.18
2022-09-23T21:14:44.826Z,202.50
2022-09-23T21:17:13.285Z,208.07
2022-09-23T21:19:41.916Z,211.45
2022-09-23T21:22:10.955Z,203.73
2022-09-23T21:25:25.163Z,205.25
2022-09-23T21:27:27.152Z,210.85
2022-09-23T21:29:56.649Z,209.57
2022-09-23T21:32:24.780Z,203.80
2022-09-23T21:34:52.632Z,203.95
2022-09-23T21:37:21.622Z,202.27
2022-09-23T21:40:09.856Z,203.25
2022-09-23T21:42:37.785Z,198.80
2022-09-23T21:45:09.124Z,202.77
2022-09-23T21:47:36.916Z,206.63
2022-09-23T21:50:05.386Z,200.98
2022-09-23T21:52:33.328Z,205.38
2022-09-23T21:55:01.500Z,205.20
2022-09-23T21:57:31.271Z,208.18
2022-09-23T21:59:59.097Z,205.60
2022-09-23T22:02:28.853Z,210.73
2022-09-23T22:04:56.787Z,210.02
2022-09-23T22:07:24.910Z,207.23
2022-09-23T22:09:52.722Z,208.55
2022-09-23T22:12:20.789Z,207.43
2022-09-23T22:14:49.168Z,206.98
2022-09-23T22:17:16.980Z,217.93
2022-09-23T22:19:47.538Z,214.73
2022-09-23T22:22:17.898Z,210.90
2022-09-23T22:24:46.944Z,209.63
2022-09-23T22:27:17.551Z,210.35
2022-09-23T22:30:03.521Z,211.38
2022-09-23T22:32:46.095Z,205.38
2022-09-23T22:35:17.818Z,205.13
2022-09-23T22:37:47.275Z,205.23
2022-09-23T22:40:16.615Z,203.90
2022-09-23T22:42:44.921Z,208.07
2022-09-23T22:45:13.486Z,208.20
2022-09-23T22:47:43.642Z,205.13
2022-09-23T22:50:13.939Z,207.65
2022-09-23T22:52:43.784Z,195.25
2022-09-23T22:55:12.093Z,205.55
2022-09-23T22:57:40.175Z,200.45
2022-09-23T23:00:12.173Z,199.98
2022-09-23T23:02:40.441Z,205.73
2022-09-23T23:05:09.005Z,204.52
2022-09-23T23:07:37.369Z,203.93
2022-09-23T23:10:10.231Z,201.60
2022-09-23T23:12:40.148Z,201.73
2022-09-23T23:15:12.370Z,207.85
2022-09-23T23:17:41.419Z,206.48
2022-09-23T23:20:10.017Z,196.07
2022-09-23T23:22:38.049Z,197.15
2022-09-23T23:25:08.135Z,198.80
2022-09-23T23:27:36.198Z,205.13
2022-09-23T23:30:04.523Z,195.85
2022-09-23T23:32:32.459Z,198.45
2022-09-23T23:35:00.302Z,194.43
2022-09-23T23:37:29.665Z,191.18
2022-09-23T23:39:57.516Z,202.85
2022-09-23T23:42:27.158Z,200.38
2022-09-23T23:44:55.294Z,203.40
2022-09-23T23:47:23.368Z,196.25
2022-09-23T23:49:51.239Z,198.38
2022-09-23T23:52:19.191Z,194.70
2022-09-23T23:54:47.272Z,201.50
2022-09-23T23:57:15.222Z,191.57
2022-09-23T23:59:44.707Z,192.70
